CheckWX is a tool to help pilots better visualize weather data.  It is not intended as a substitute for an official pre-flight weather briefing.

21:37:48 UTC

EDTY TAF
Adolf Würth Airport
Schwäbisch Hall, Germany
TAF EDTY 201700Z 2018/2103 04005KT CAVOK BECMG 2020/2022 VRB02KT

Mar-20@
18:00 UTC

Mar-20 @ 18:00 UTC

Mar-20@
20:00 UTC

Mar-20 @ 20:00 UTC

TAF EDTY 201700Z 2018/2103 04005KT CAVOK

Expired

Wind
  • 040° at 5 KTS
Conditions
No significant weather
Cloud Levels
  • No significant clouds

Mar-20@
20:00 UTC

Mar-20 @ 20:00 UTC

Mar-21@
03:00 UTC

Mar-21 @ 03:00 UTC

BECMG 2020/2022 VRB02KT

Becoming

Becoming Conditions expected by Wed, Mar 20, 2019 @ 22:00 UTC

Wind
  • Variable at 2 KTS
Conditions
No significant weather
Cloud Levels
  • No significant clouds